createdAt,value
2023-02-23T00:02:07.241Z,20.03
2023-02-23T00:04:33.989Z,20.04
2023-02-23T00:07:00.311Z,20.03
2023-02-23T00:09:27.744Z,20.02
2023-02-23T00:11:54.588Z,20.03
2023-02-23T00:14:21.154Z,20.02
2023-02-23T00:16:47.608Z,20.02
2023-02-23T00:19:14.106Z,20.02
2023-02-23T00:21:40.625Z,20.01
2023-02-23T00:24:08.788Z,20.01
2023-02-23T00:26:35.579Z,19.99
2023-02-23T00:29:02.386Z,20.00
2023-02-23T00:31:28.803Z,19.99
2023-02-23T00:33:55.977Z,19.98
2023-02-23T00:36:23.056Z,19.99
2023-02-23T00:38:53.024Z,19.98
2023-02-23T00:41:22.905Z,19.98
2023-02-23T00:43:49.237Z,19.97
2023-02-23T00:46:18.838Z,19.96
2023-02-23T00:48:45.211Z,19.95
2023-02-23T00:51:11.573Z,19.95
2023-02-23T00:53:39.767Z,19.94
2023-02-23T00:56:06.536Z,19.94
2023-02-23T00:58:36.213Z,19.93
2023-02-23T01:01:05.085Z,19.92
2023-02-23T01:03:31.425Z,19.92
2023-02-23T01:06:04.442Z,19.91
2023-02-23T01:08:31.151Z,19.90
2023-02-23T01:10:57.477Z,19.88
2023-02-23T01:13:23.850Z,19.88
2023-02-23T01:15:50.254Z,19.87
2023-02-23T01:18:16.616Z,19.87
2023-02-23T01:20:43.082Z,19.87
2023-02-23T01:23:12.559Z,19.87
2023-02-23T01:25:38.906Z,19.86
2023-02-23T01:28:05.241Z,19.85
2023-02-23T01:30:31.632Z,19.85
2023-02-23T01:32:58.076Z,19.85
2023-02-23T01:35:24.410Z,19.84
2023-02-23T01:37:50.760Z,19.84
2023-02-23T01:40:30.723Z,19.84
2023-02-23T01:43:06.591Z,19.83
2023-02-23T01:45:34.824Z,19.83
2023-02-23T01:48:03.114Z,19.83
2023-02-23T01:50:30.826Z,19.82
2023-02-23T01:52:58.691Z,19.82
2023-02-23T01:55:25.296Z,19.83
2023-02-23T01:57:56.542Z,19.83
2023-02-23T02:00:25.809Z,19.84
2023-02-23T02:02:52.573Z,19.84
2023-02-23T02:05:19.762Z,19.87
2023-02-23T02:07:49.402Z,19.88
2023-02-23T02:10:38.495Z,19.88
2023-02-23T02:13:05.946Z,19.90
2023-02-23T02:15:33.095Z,19.92
2023-02-23T02:18:00.061Z,19.90
2023-02-23T02:20:45.271Z,19.90
2023-02-23T02:23:31.261Z,19.90
2023-02-23T02:26:00.928Z,19.91
2023-02-23T02:28:29.697Z,19.91
2023-02-23T02:30:56.959Z,19.90
2023-02-23T02:33:32.092Z,19.90
2023-02-23T02:35:58.369Z,19.90
2023-02-23T02:38:43.500Z,19.88
2023-02-23T02:41:13.592Z,19.88
2023-02-23T02:43:46.875Z,19.85
2023-02-23T02:46:14.391Z,19.86
2023-02-23T02:49:00.331Z,19.86
2023-02-23T02:51:35.242Z,19.85
2023-02-23T02:54:06.806Z,19.84
2023-02-23T02:56:39.844Z,19.83
2023-02-23T02:59:28.818Z,19.83
2023-02-23T03:02:13.898Z,19.81
2023-02-23T03:04:58.645Z,19.81
2023-02-23T03:07:51.879Z,19.80
2023-02-23T03:10:40.580Z,19.80
2023-02-23T03:13:30.496Z,19.79
2023-02-23T03:16:18.997Z,19.77
2023-02-23T03:19:07.544Z,19.77
2023-02-23T03:21:53.661Z,19.77
2023-02-23T03:24:44.342Z,19.77
2023-02-23T03:27:36.897Z,19.75
2023-02-23T03:30:25.368Z,19.76
2023-02-23T03:33:17.672Z,19.77
2023-02-23T03:36:21.718Z,19.78
2023-02-23T03:39:08.785Z,19.79
2023-02-23T03:41:53.645Z,19.78
2023-02-23T03:44:43.297Z,19.79
2023-02-23T03:47:28.521Z,19.81
2023-02-23T03:50:13.694Z,19.82
2023-02-23T03:53:00.883Z,19.84
2023-02-23T03:55:46.571Z,19.86
2023-02-23T03:58:32.708Z,19.87
2023-02-23T04:01:18.072Z,19.88
2023-02-23T04:04:03.361Z,19.89
2023-02-23T04:06:49.923Z,19.88
2023-02-23T04:09:34.772Z,19.89
2023-02-23T04:12:23.079Z,19.88
2023-02-23T04:14:51.722Z,19.89
2023-02-23T04:17:18.445Z,19.89
2023-02-23T04:19:51.192Z,19.92
2023-02-23T04:22:17.506Z,19.93
2023-02-23T04:24:43.848Z,19.93
2023-02-23T04:27:10.176Z,19.93
2023-02-23T04:29:36.492Z,19.94
2023-02-23T04:32:02.882Z,19.93
2023-02-23T04:34:29.297Z,19.93
2023-02-23T04:36:55.631Z,19.93
2023-02-23T04:39:21.943Z,19.94
2023-02-23T04:41:50.216Z,19.94
2023-02-23T04:44:16.983Z,19.94
2023-02-23T04:46:43.349Z,19.96
2023-02-23T04:49:09.676Z,19.95
2023-02-23T04:51:37.263Z,19.97
2023-02-23T04:54:03.932Z,19.98
2023-02-23T04:56:30.334Z,19.96
2023-02-23T04:58:56.665Z,19.96
2023-02-23T05:01:23.181Z,19.95
2023-02-23T05:03:49.785Z,19.96
2023-02-23T05:06:18.953Z,19.96
2023-02-23T05:08:45.612Z,19.98
2023-02-23T05:11:12.025Z,19.97
2023-02-23T05:13:38.341Z,19.98
2023-02-23T05:16:04.890Z,19.98
2023-02-23T05:18:31.308Z,19.99
2023-02-23T05:21:07.514Z,19.99
2023-02-23T05:23:34.955Z,19.99
2023-02-23T05:26:02.219Z,19.99
2023-02-23T05:28:28.555Z,19.98
2023-02-23T05:30:54.922Z,19.99
2023-02-23T05:33:21.870Z,19.99
2023-02-23T05:35:48.545Z,19.99
2023-02-23T05:38:14.876Z,19.99
2023-02-23T05:40:41.557Z,20.00
2023-02-23T05:43:07.880Z,20.02
2023-02-23T05:45:34.209Z,20.01
2023-02-23T05:48:00.556Z,20.02
2023-02-23T05:50:26.906Z,20.01
2023-02-23T05:52:53.843Z,20.02
2023-02-23T05:55:20.246Z,20.02
2023-02-23T05:57:46.570Z,20.00
2023-02-23T06:00:15.812Z,20.02
2023-02-23T06:02:42.221Z,20.02
2023-02-23T06:05:09.057Z,20.02
2023-02-23T06:07:35.404Z,20.14
2023-02-23T06:10:01.759Z,20.01
2023-02-23T06:12:28.116Z,20.06
2023-02-23T06:14:54.469Z,20.07
2023-02-23T06:17:20.791Z,20.11
2023-02-23T06:19:47.252Z,20.12
2023-02-23T06:22:13.583Z,20.12
2023-02-23T06:24:39.902Z,20.22
2023-02-23T06:27:07.190Z,20.26
2023-02-23T06:29:33.523Z,20.27
2023-02-23T06:32:01.077Z,20.15
2023-02-23T06:34:27.596Z,20.13
2023-02-23T06:36:53.998Z,20.13
2023-02-23T06:39:20.353Z,20.13
2023-02-23T06:41:46.698Z,20.12
2023-02-23T06:44:13.020Z,20.09
2023-02-23T06:46:39.413Z,20.13
2023-02-23T06:49:05.760Z,20.17
2023-02-23T06:51:32.291Z,20.19
2023-02-23T06:53:58.627Z,20.17
2023-02-23T06:56:24.979Z,20.14
2023-02-23T06:58:51.339Z,20.11
2023-02-23T07:01:18.794Z,20.16
2023-02-23T07:03:45.748Z,20.29
2023-02-23T07:06:12.085Z,20.31
2023-02-23T07:08:38.790Z,20.40
2023-02-23T07:11:07.032Z,20.46
2023-02-23T07:13:33.443Z,20.44
2023-02-23T07:15:59.845Z,20.49
2023-02-23T07:18:26.687Z,20.51
2023-02-23T07:20:53.133Z,20.62
2023-02-23T07:23:19.527Z,20.65
2023-02-23T07:25:46.591Z,20.67
2023-02-23T07:28:14.193Z,20.70
2023-02-23T07:30:40.682Z,20.61
2023-02-23T07:33:07.052Z,20.41
2023-02-23T07:35:33.417Z,20.23
2023-02-23T07:37:59.762Z,20.11
2023-02-23T07:40:26.445Z,19.63
2023-02-23T07:42:52.811Z,18.37
2023-02-23T07:45:19.891Z,17.84
2023-02-23T07:47:46.267Z,17.48
2023-02-23T07:50:13.888Z,18.06
2023-02-23T07:52:40.568Z,18.98
2023-02-23T07:55:07.138Z,19.43
2023-02-23T07:57:33.594Z,19.65
2023-02-23T07:59:59.924Z,19.80
2023-02-23T08:02:26.385Z,19.85
2023-02-23T08:04:54.201Z,19.90
2023-02-23T08:07:20.704Z,19.92
2023-02-23T08:09:47.788Z,20.02
2023-02-23T08:12:15.467Z,20.01
2023-02-23T08:14:42.319Z,20.08
2023-02-23T08:17:08.765Z,20.06
2023-02-23T08:19:35.742Z,20.06
2023-02-23T08:22:02.070Z,20.09
2023-02-23T08:24:29.717Z,20.10
2023-02-23T08:26:56.109Z,20.08
2023-02-23T08:29:22.480Z,19.31
2023-02-23T08:31:48.901Z,17.22
2023-02-23T08:34:15.329Z,18.98
2023-02-23T08:36:45.686Z,19.87
2023-02-23T08:39:12.593Z,20.18
2023-02-23T08:41:39.297Z,20.25
2023-02-23T08:44:05.635Z,18.53
2023-02-23T08:46:31.994Z,19.28
2023-02-23T08:48:58.336Z,19.67
2023-02-23T08:51:24.721Z,19.85
2023-02-23T08:53:51.327Z,20.02
2023-02-23T08:56:17.664Z,20.04
2023-02-23T08:58:44.031Z,20.29
2023-02-23T09:01:18.177Z,20.51
2023-02-23T09:03:44.801Z,20.61
2023-02-23T09:06:12.192Z,20.68
2023-02-23T09:08:39.110Z,20.69
2023-02-23T09:11:05.637Z,20.66
2023-02-23T09:13:32.079Z,20.70
2023-02-23T09:15:58.478Z,20.72
2023-02-23T09:18:29.458Z,20.71
2023-02-23T09:20:55.801Z,20.84
2023-02-23T09:23:22.166Z,20.87
2023-02-23T09:25:48.502Z,20.83
2023-02-23T09:28:15.475Z,20.86
2023-02-23T09:30:42.207Z,20.90
2023-02-23T09:33:08.561Z,20.86
2023-02-23T09:35:36.155Z,20.98
2023-02-23T09:38:03.652Z,21.06
2023-02-23T09:40:31.464Z,21.04
2023-02-23T09:43:02.836Z,18.99
2023-02-23T09:45:30.822Z,20.06
2023-02-23T09:47:58.791Z,20.54
2023-02-23T09:50:26.839Z,20.74
2023-02-23T09:52:58.750Z,20.99
2023-02-23T09:55:25.562Z,21.10
2023-02-23T09:57:51.966Z,21.14
2023-02-23T10:00:18.463Z,21.14
2023-02-23T10:02:56.295Z,21.18
2023-02-23T10:05:22.647Z,21.29
2023-02-23T10:08:02.813Z,21.32
2023-02-23T10:10:29.093Z,21.32
2023-02-23T10:13:00.751Z,21.34
2023-02-23T10:15:38.714Z,21.38
2023-02-23T10:18:18.310Z,21.39
2023-02-23T10:20:54.033Z,21.41
2023-02-23T10:23:39.165Z,21.14
2023-02-23T10:26:08.677Z,21.10
2023-02-23T10:28:35.550Z,21.33
2023-02-23T10:31:02.336Z,21.56
2023-02-23T10:33:31.111Z,21.25
2023-02-23T10:36:12.540Z,21.00
2023-02-23T10:38:39.463Z,20.88
2023-02-23T10:41:05.831Z,20.85
2023-02-23T10:43:32.187Z,20.82
2023-02-23T10:45:58.537Z,20.81
2023-02-23T10:48:26.418Z,20.79
2023-02-23T10:50:53.753Z,20.77
2023-02-23T10:53:24.250Z,20.77
2023-02-23T10:56:03.681Z,20.79
2023-02-23T10:58:30.050Z,20.77
2023-02-23T11:00:57.237Z,20.79
2023-02-23T11:03:30.357Z,20.79
2023-02-23T11:05:56.677Z,20.78
2023-02-23T11:11:55.132Z,20.78
2023-02-23T11:14:23.218Z,20.75
2023-02-23T11:16:49.555Z,21.19
2023-02-23T11:19:22.883Z,21.29
2023-02-23T11:21:50.400Z,21.31
2023-02-23T11:24:24.739Z,21.29
2023-02-23T11:26:51.621Z,21.39
2023-02-23T11:29:20.931Z,21.47
2023-02-23T11:31:48.583Z,21.63
2023-02-23T11:34:19.600Z,21.54
2023-02-23T11:36:45.955Z,21.50
2023-02-23T11:39:19.291Z,21.45
2023-02-23T11:41:45.645Z,21.43
2023-02-23T11:44:22.089Z,21.68
2023-02-23T11:46:48.429Z,21.66
2023-02-23T11:49:17.639Z,21.67
2023-02-23T11:51:46.202Z,21.65
2023-02-23T11:54:21.026Z,21.64
2023-02-23T11:56:47.830Z,21.28
2023-02-23T11:59:15.851Z,21.13
2023-02-23T12:01:51.316Z,21.08
2023-02-23T12:04:24.300Z,21.04
2023-02-23T12:06:50.737Z,21.00
2023-02-23T12:09:19.524Z,20.99
2023-02-23T12:11:54.457Z,20.99
2023-02-23T12:14:25.510Z,20.98
2023-02-23T12:16:53.489Z,20.97
2023-02-23T12:19:28.736Z,20.98
2023-02-23T12:22:03.142Z,20.84
2023-02-23T12:24:41.371Z,19.99
2023-02-23T12:27:12.797Z,20.30
2023-02-23T12:29:45.933Z,20.59
2023-02-23T12:32:13.395Z,20.75
2023-02-23T12:34:42.057Z,20.85
2023-02-23T12:37:29.001Z,20.85
2023-02-23T12:39:57.595Z,20.85
2023-02-23T12:42:43.345Z,20.86
2023-02-23T12:45:18.001Z,20.84
2023-02-23T12:47:44.797Z,20.18
2023-02-23T12:50:13.522Z,20.35
2023-02-23T12:52:47.591Z,20.54
2023-02-23T12:55:14.075Z,20.69
2023-02-23T12:57:48.538Z,20.65
2023-02-23T13:00:27.629Z,20.66
2023-02-23T13:03:02.781Z,20.66
2023-02-23T13:05:32.218Z,20.63
2023-02-23T13:08:12.552Z,20.58
2023-02-23T13:10:43.508Z,20.29
2023-02-23T13:13:19.205Z,20.60
2023-02-23T13:16:08.212Z,20.75
2023-02-23T13:18:37.413Z,20.85
2023-02-23T13:21:05.905Z,20.97
2023-02-23T13:23:34.901Z,20.80
2023-02-23T13:26:13.074Z,20.75
2023-02-23T13:28:41.970Z,20.84
2023-02-23T13:31:14.596Z,20.94
2023-02-23T13:33:44.233Z,20.97
2023-02-23T13:36:12.722Z,21.02
2023-02-23T13:38:41.978Z,21.14
2023-02-23T13:41:12.813Z,21.14
2023-02-23T13:43:49.655Z,21.13
2023-02-23T13:46:27.752Z,21.09
2023-02-23T13:49:02.404Z,21.17
2023-02-23T13:51:37.080Z,21.16
2023-02-23T13:54:12.615Z,21.10
2023-02-23T13:56:42.624Z,21.15
2023-02-23T13:59:09.908Z,21.20
2023-02-23T14:01:37.260Z,21.04
2023-02-23T14:04:04.493Z,20.96
2023-02-23T14:06:31.546Z,20.93
2023-02-23T14:09:00.755Z,20.91
2023-02-23T14:11:44.057Z,20.92
2023-02-23T14:14:16.887Z,20.90
2023-02-23T14:16:43.545Z,20.90
2023-02-23T14:19:10.781Z,20.90
2023-02-23T14:21:41.382Z,20.87
2023-02-23T14:24:14.985Z,20.87
2023-02-23T14:26:42.517Z,20.85
2023-02-23T14:29:14.947Z,20.98
2023-02-23T14:31:52.772Z,21.08
2023-02-23T14:34:19.606Z,21.09
2023-02-23T14:36:46.550Z,20.98
2023-02-23T14:39:31.010Z,21.22
2023-02-23T14:42:00.498Z,21.32
2023-02-23T14:44:31.176Z,21.41
2023-02-23T14:47:02.037Z,21.46
2023-02-23T14:49:28.767Z,21.45
2023-02-23T14:51:55.357Z,21.48
2023-02-23T14:54:24.347Z,21.45
2023-02-23T14:56:51.696Z,21.46
2023-02-23T14:59:21.890Z,21.58
2023-02-23T15:01:48.622Z,21.63
2023-02-23T15:04:20.371Z,21.62
2023-02-23T15:06:49.409Z,21.66
2023-02-23T15:09:20.433Z,21.73
2023-02-23T15:11:49.772Z,21.79
2023-02-23T15:14:26.990Z,21.94
2023-02-23T15:16:54.401Z,22.04
2023-02-23T15:19:32.180Z,21.82
2023-02-23T15:21:59.195Z,21.78
2023-02-23T15:24:31.291Z,21.88
2023-02-23T15:26:57.740Z,21.86
2023-02-23T15:29:24.979Z,21.82
2023-02-23T15:31:52.772Z,21.80
2023-02-23T15:34:29.955Z,21.78
2023-02-23T15:36:56.416Z,21.79
2023-02-23T15:39:29.707Z,21.83
2023-02-23T15:41:58.889Z,21.89
2023-02-23T15:44:29.536Z,21.88
2023-02-23T15:46:59.241Z,21.93
2023-02-23T15:49:26.042Z,21.93
2023-02-23T15:51:53.040Z,22.03
2023-02-23T15:54:23.757Z,22.13
2023-02-23T15:56:50.590Z,21.95
2023-02-23T15:59:28.621Z,21.92
2023-02-23T16:01:56.226Z,21.92
2023-02-23T16:04:23.485Z,22.02
2023-02-23T16:06:51.045Z,22.07
2023-02-23T16:09:20.740Z,22.05
2023-02-23T16:11:51.351Z,22.06
2023-02-23T16:14:17.933Z,22.07
2023-02-23T16:16:46.668Z,22.09
2023-02-23T16:19:13.509Z,22.02
2023-02-23T16:21:39.865Z,21.85
2023-02-23T16:24:07.143Z,21.75
2023-02-23T16:26:50.325Z,21.92
2023-02-23T16:29:19.392Z,22.02
2023-02-23T16:31:49.926Z,22.02
2023-02-23T16:34:34.260Z,22.03
2023-02-23T16:37:02.879Z,21.84
2023-02-23T16:39:29.756Z,21.80
2023-02-23T16:41:58.548Z,21.81
2023-02-23T16:44:31.439Z,21.97
2023-02-23T16:47:04.197Z,21.97
2023-02-23T16:49:31.225Z,22.00
2023-02-23T16:51:57.966Z,22.03
2023-02-23T16:54:24.326Z,21.96
2023-02-23T16:56:50.682Z,21.94
2023-02-23T16:59:17.505Z,21.90
2023-02-23T17:01:46.497Z,21.79
2023-02-23T17:04:15.197Z,21.75
2023-02-23T17:06:43.297Z,21.69
2023-02-23T17:09:09.901Z,21.22
2023-02-23T17:11:36.255Z,21.49
2023-02-23T17:14:02.649Z,21.67
2023-02-23T17:16:29.156Z,21.77
2023-02-23T17:18:55.582Z,21.80
2023-02-23T17:21:23.887Z,21.82
2023-02-23T17:23:53.279Z,21.84
2023-02-23T17:26:20.702Z,21.84
2023-02-23T17:28:47.044Z,21.83
2023-02-23T17:31:13.721Z,21.85
2023-02-23T17:33:40.076Z,21.88
2023-02-23T17:36:07.596Z,21.91
2023-02-23T17:38:34.097Z,21.93
2023-02-23T17:41:04.518Z,21.93
2023-02-23T17:43:30.865Z,21.91
2023-02-23T17:45:57.249Z,21.94
2023-02-23T17:48:23.692Z,21.99
2023-02-23T17:51:00.890Z,22.10
2023-02-23T17:53:27.554Z,22.11
2023-02-23T17:55:54.070Z,22.11
2023-02-23T17:58:20.466Z,22.18
2023-02-23T18:00:46.940Z,22.16
2023-02-23T18:03:13.290Z,22.07
2023-02-23T18:05:39.697Z,22.02
2023-02-23T18:08:06.033Z,22.04
2023-02-23T18:10:36.694Z,22.04
2023-02-23T18:13:03.710Z,21.63
2023-02-23T18:15:30.788Z,21.47
2023-02-23T18:17:57.992Z,21.70
2023-02-23T18:20:24.384Z,21.74
2023-02-23T18:22:51.042Z,21.77
2023-02-23T18:25:21.187Z,21.80
2023-02-23T18:27:49.330Z,21.83
2023-02-23T18:30:15.682Z,21.92
2023-02-23T18:32:42.131Z,21.95
2023-02-23T18:35:08.617Z,21.62
2023-02-23T18:37:35.031Z,21.27
2023-02-23T18:40:01.381Z,21.24
2023-02-23T18:42:27.933Z,21.27
2023-02-23T18:44:54.278Z,21.18
2023-02-23T18:47:20.631Z,21.14
2023-02-23T18:49:47.592Z,21.11
2023-02-23T18:52:13.942Z,21.07
2023-02-23T18:54:40.461Z,21.08
2023-02-23T18:57:06.790Z,21.07
2023-02-23T18:59:33.164Z,21.06
2023-02-23T19:01:59.574Z,21.09
2023-02-23T19:04:25.957Z,21.04
2023-02-23T19:06:52.276Z,20.58
2023-02-23T19:09:19.553Z,20.17
2023-02-23T19:11:45.913Z,20.01
2023-02-23T19:14:13.135Z,20.19
2023-02-23T19:16:41.004Z,20.27
2023-02-23T19:19:07.584Z,20.25
2023-02-23T19:21:33.952Z,20.01
2023-02-23T19:24:02.313Z,20.02
2023-02-23T19:26:29.322Z,20.17
2023-02-23T19:28:55.938Z,20.10
2023-02-23T19:31:22.856Z,20.35
2023-02-23T19:33:49.747Z,20.48
2023-02-23T19:36:17.488Z,20.55
2023-02-23T19:38:43.830Z,20.59
2023-02-23T19:41:11.218Z,20.60
2023-02-23T19:43:37.595Z,20.61
2023-02-23T19:46:04.543Z,20.65
2023-02-23T19:48:30.908Z,20.64
2023-02-23T19:50:57.229Z,20.65
2023-02-23T19:53:23.562Z,20.66
2023-02-23T19:55:57.968Z,20.65
2023-02-23T19:58:27.117Z,20.59
2023-02-23T20:00:54.097Z,20.64
2023-02-23T20:03:26.516Z,20.60
2023-02-23T20:05:52.839Z,20.66
2023-02-23T20:08:19.443Z,20.65
2023-02-23T20:10:45.788Z,20.65
2023-02-23T20:13:12.139Z,20.64
2023-02-23T20:15:38.472Z,20.63
2023-02-23T20:18:04.898Z,20.61
2023-02-23T20:20:31.571Z,20.66
2023-02-23T20:22:58.311Z,20.51
2023-02-23T20:25:24.640Z,20.53
2023-02-23T20:27:50.990Z,20.56
2023-02-23T20:30:17.432Z,20.55
2023-02-23T20:32:44.134Z,20.57
2023-02-23T20:35:13.980Z,20.56
2023-02-23T20:37:40.329Z,20.62
2023-02-23T20:40:15.721Z,20.60
2023-02-23T20:42:44.427Z,20.59
2023-02-23T20:45:11.485Z,20.59
2023-02-23T20:47:38.070Z,20.60
2023-02-23T20:50:05.348Z,20.62
2023-02-23T20:52:32.657Z,20.62
2023-02-23T20:54:59.004Z,20.62
2023-02-23T20:57:26.805Z,20.64
2023-02-23T20:59:53.221Z,20.65
2023-02-23T21:02:19.652Z,20.57
2023-02-23T21:04:45.976Z,20.56
2023-02-23T21:07:13.502Z,20.55
2023-02-23T21:09:43.455Z,20.53
2023-02-23T21:12:10.240Z,20.54
2023-02-23T21:14:36.602Z,20.56
2023-02-23T21:17:02.985Z,20.54
2023-02-23T21:19:29.482Z,20.56
2023-02-23T21:21:58.104Z,20.55
2023-02-23T21:24:24.830Z,20.55
2023-02-23T21:26:51.253Z,20.55
2023-02-23T21:29:18.023Z,20.54
2023-02-23T21:31:45.231Z,20.55
2023-02-23T21:34:11.872Z,20.53
2023-02-23T21:36:38.258Z,20.58
2023-02-23T21:39:04.586Z,20.58
2023-02-23T21:41:33.910Z,20.58
2023-02-23T21:44:00.531Z,20.58
2023-02-23T21:46:26.884Z,20.56
2023-02-23T21:48:53.225Z,20.56
2023-02-23T21:51:19.855Z,20.57
2023-02-23T21:53:46.571Z,20.56
2023-02-23T21:56:13.829Z,20.56
2023-02-23T21:58:44.577Z,20.55
2023-02-23T22:01:11.666Z,20.56
2023-02-23T22:03:38.176Z,20.54
2023-02-23T22:06:04.633Z,20.51
2023-02-23T22:08:31.026Z,20.50
2023-02-23T22:10:57.351Z,20.54
2023-02-23T22:13:23.741Z,20.50
2023-02-23T22:15:50.120Z,20.49
2023-02-23T22:18:17.001Z,20.49
2023-02-23T22:20:52.743Z,20.47
2023-02-23T22:23:19.076Z,20.47
2023-02-23T22:25:46.841Z,20.46
2023-02-23T22:28:13.196Z,20.45
2023-02-23T22:30:41.984Z,20.45
2023-02-23T22:33:08.440Z,20.45
2023-02-23T22:35:34.776Z,20.47
2023-02-23T22:38:01.104Z,20.47
2023-02-23T22:40:27.887Z,20.47
2023-02-23T22:42:54.802Z,20.48
2023-02-23T22:45:21.137Z,20.46
2023-02-23T22:47:47.509Z,20.44
2023-02-23T22:50:17.604Z,20.43
2023-02-23T22:52:43.935Z,20.42
2023-02-23T22:55:10.973Z,20.41
2023-02-23T22:57:37.346Z,20.40
2023-02-23T23:00:10.148Z,20.40
2023-02-23T23:02:36.462Z,20.39
2023-02-23T23:05:02.803Z,20.38
2023-02-23T23:07:30.864Z,20.36
2023-02-23T23:09:58.356Z,20.35
2023-02-23T23:12:25.049Z,20.35
2023-02-23T23:14:51.418Z,20.35
2023-02-23T23:17:17.805Z,20.35
2023-02-23T23:19:44.223Z,20.33
2023-02-23T23:22:14.244Z,20.33
2023-02-23T23:24:45.741Z,20.32
2023-02-23T23:27:14.485Z,20.31
2023-02-23T23:29:41.108Z,20.30
2023-02-23T23:32:07.578Z,20.29
2023-02-23T23:34:33.979Z,20.29
2023-02-23T23:37:01.237Z,20.28
2023-02-23T23:39:27.600Z,20.27
2023-02-23T23:41:53.945Z,20.26
2023-02-23T23:44:21.120Z,20.26
2023-02-23T23:46:47.591Z,20.25
2023-02-23T23:49:17.393Z,20.24
2023-02-23T23:51:47.752Z,20.23
2023-02-23T23:54:18.256Z,20.23
2023-02-23T23:56:44.589Z,20.24
2023-02-23T23:59:11.634Z,20.23
